Time;durP1;ratioP1;P1;durP2;ratioP2;P2;SDS_P1;SDS_P2;PMS_P1;PMS_P2;Temp;Humidity;BMP_temperature;BMP_pressure;BME280_temperature;BME280_humidity;BME280_pressure;Samples;Min_cycle;Max_cycle;Signal;HPM_P1;HPM_P2
2024/03/21 00:01:40;;;;;;;23.40;12.55;;;14.70;99.90;;;;;;5081442;28;20029;-70
2024/03/21 00:04:06;;;;;;;19.95;12.23;;;14.70;99.90;;;;;;5079305;28;20028;-69
2024/03/21 00:06:32;;;;;;;22.88;12.70;;;14.70;99.90;;;;;;5083284;28;20533;-71
2024/03/21 00:08:57;;;;;;;21.40;13.00;;;14.60;99.90;;;;;;5063405;28;20681;-69
2024/03/21 00:11:23;;;;;;;20.15;13.43;;;14.60;99.90;;;;;;5081405;28;20024;-71
2024/03/21 00:13:49;;;;;;;23.20;12.75;;;14.60;99.90;;;;;;5079755;28;20025;-70
2024/03/21 00:16:14;;;;;;;22.23;12.63;;;14.60;99.90;;;;;;5082923;28;20012;-70
2024/03/21 00:18:41;;;;;;;22.77;12.13;;;14.60;99.90;;;;;;5079401;28;20043;-70
2024/03/21 00:21:08;;;;;;;24.05;13.20;;;14.60;99.90;;;;;;5062039;28;20109;-70
2024/03/21 00:23:34;;;;;;;23.98;12.70;;;14.60;99.90;;;;;;5083545;28;20032;-70
2024/03/21 00:26:00;;;;;;;18.77;11.98;;;14.60;99.90;;;;;;5080408;28;20047;-70
2024/03/21 00:28:26;;;;;;;24.90;13.38;;;14.50;99.90;;;;;;5088932;28;20024;-69
2024/03/21 00:30:54;;;;;;;19.67;12.07;;;14.40;99.90;;;;;;5082255;28;20058;-71
2024/03/21 00:33:20;;;;;;;;;;;14.40;99.90;;;;;;5060822;28;20044;-70
2024/03/21 00:35:46;;;;;;;24.55;12.25;;;14.50;99.90;;;;;;5062014;28;19999;-70
2024/03/21 00:38:12;;;;;;;21.25;12.43;;;14.50;99.90;;;;;;5082125;28;20124;-70
2024/03/21 00:40:38;;;;;;;22.65;12.73;;;14.50;99.90;;;;;;5065600;28;20024;-70
2024/03/21 00:43:04;;;;;;;27.83;12.82;;;14.40;99.90;;;;;;5061339;28;20388;-70
2024/03/21 00:45:30;;;;;;;33.63;13.32;;;14.30;99.90;;;;;;5082753;28;20036;-70
2024/03/21 00:48:14;;;;;;;20.90;12.18;;;14.40;99.90;;;;;;5083867;28;20052;-70
2024/03/21 00:50:40;;;;;;;20.58;11.82;;;14.40;99.90;;;;;;5066334;28;20044;-70
2024/03/21 00:53:06;;;;;;;28.40;12.93;;;14.40;99.90;;;;;;5081721;28;20036;-69
2024/03/21 00:55:31;;;;;;;25.67;13.45;;;14.40;99.90;;;;;;5077995;28;20102;-69
2024/03/21 00:57:57;;;;;;;24.20;11.50;;;14.40;99.90;;;;;;5084539;28;20044;-69
2024/03/21 01:00:22;;;;;;;27.67;13.45;;;14.40;99.90;;;;;;5083279;28;20036;-71
2024/03/21 01:02:48;;;;;;;20.60;13.20;;;14.30;99.90;;;;;;5082163;28;20119;-71
2024/03/21 01:05:14;;;;;;;21.08;11.95;;;14.30;99.90;;;;;;5064683;28;20373;-70
2024/03/21 01:07:40;;;;;;;24.15;12.35;;;14.30;99.90;;;;;;5078622;28;20024;-70
2024/03/21 01:10:09;;;;;;;22.17;12.40;;;14.20;99.90;;;;;;5074579;28;20046;-70
2024/03/21 01:12:35;;;;;;;20.10;12.48;;;14.10;99.90;;;;;;5074705;28;20573;-70
2024/03/21 01:15:00;;;;;;;24.73;13.32;;;14.20;99.90;;;;;;5079781;28;20036;-69
2024/03/21 01:17:26;;;;;;;20.90;12.63;;;14.10;99.90;;;;;;5060792;28;20033;-71
2024/03/21 01:19:51;;;;;;;18.15;12.38;;;14.10;99.90;;;;;;5079455;28;20712;-70
2024/03/21 01:22:17;;;;;;;22.73;12.32;;;14.10;99.90;;;;;;5066382;28;20040;-71
2024/03/21 01:24:46;;;;;;;22.15;12.75;;;14.10;99.90;;;;;;5062035;28;20029;-70
2024/03/21 01:27:11;;;;;;;21.35;11.75;;;14.10;99.90;;;;;;5076947;28;20104;-70
2024/03/21 01:29:37;;;;;;;26.92;13.55;;;14.10;99.90;;;;;;5079540;28;20040;-70
2024/03/21 01:32:03;;;;;;;21.42;12.48;;;14.10;99.90;;;;;;5075492;28;20063;-71
2024/03/21 01:34:29;;;;;;;21.35;12.38;;;14.10;99.90;;;;;;5079353;28;20046;-71
2024/03/21 01:36:57;;;;;;;19.50;11.85;;;14.00;99.90;;;;;;5074922;28;20541;-70
2024/03/21 01:39:23;;;;;;;21.92;12.25;;;14.00;99.90;;;;;;5077621;28;20127;-69
2024/03/21 01:41:49;;;;;;;23.58;13.27;;;14.00;99.90;;;;;;5073496;28;20048;-70
2024/03/21 01:44:16;;;;;;;25.52;13.80;;;13.90;99.90;;;;;;5075390;28;20056;-70
2024/03/21 01:46:43;;;;;;;21.65;13.40;;;13.90;99.90;;;;;;5078300;28;20031;-69
2024/03/21 01:49:09;;;;;;;23.48;13.55;;;14.00;99.90;;;;;;5073873;28;20476;-71
2024/03/21 01:51:36;;;;;;;22.73;13.25;;;13.90;99.90;;;;;;5077854;28;20035;-70
2024/03/21 01:54:04;;;;;;;19.30;13.35;;;13.90;99.90;;;;;;5083129;28;20036;-70
2024/03/21 01:56:31;;;;;;;24.23;12.25;;;13.80;99.90;;;;;;5079006;28;20028;-70
2024/03/21 01:58:57;;;;;;;21.05;12.38;;;13.80;99.90;;;;;;5079696;28;20028;-71
2024/03/21 02:01:30;;;;;;;23.48;12.30;;;13.70;99.90;;;;;;5054500;28;20037;-70
2024/03/21 02:03:57;;;;;;;27.65;13.32;;;13.80;99.90;;;;;;5080540;28;20035;-70
2024/03/21 02:06:24;;;;;;;21.13;12.32;;;13.80;99.90;;;;;;5076946;28;20060;-70
2024/03/21 02:08:53;;;;;;;19.10;11.57;;;13.80;99.90;;;;;;5086096;28;20033;-70
2024/03/21 02:11:23;;;;;;;25.98;12.63;;;13.70;99.90;;;;;;5081361;28;20032;-69
2024/03/21 02:13:49;;;;;;;22.20;13.25;;;13.70;99.90;;;;;;5084627;28;20036;-69
2024/03/21 02:16:15;;;;;;;20.55;12.25;;;13.70;99.90;;;;;;5087417;28;20016;-70
2024/03/21 02:18:41;;;;;;;22.00;13.10;;;13.80;99.90;;;;;;5083398;28;20492;-70
2024/03/21 02:22:35;;;;;;;22.83;13.55;;;13.80;99.90;;;;;;5064592;28;20032;-70
2024/03/21 02:23:53;;;;;;;24.98;13.38;;;13.70;99.90;;;;;;5079288;28;20044;-70
2024/03/21 02:26:19;;;;;;;28.23;13.68;;;13.80;99.90;;;;;;5077116;28;20127;-69
2024/03/21 02:28:47;;;;;;;23.65;14.65;;;13.80;99.90;;;;;;5083073;28;20788;-71
2024/03/21 02:31:13;;;;;;;30.58;12.65;;;13.90;99.90;;;;;;5080118;28;20056;-70
2024/03/21 02:33:38;;;;;;;25.13;14.20;;;13.80;99.90;;;;;;5083448;28;20141;-70
2024/03/21 02:36:04;;;;;;;23.73;13.20;;;13.90;99.90;;;;;;5068371;28;20036;-70
2024/03/21 02:38:30;;;;;;;26.80;16.13;;;13.90;99.90;;;;;;5082827;28;20032;-70
2024/03/21 02:40:56;;;;;;;25.95;15.68;;;13.80;99.90;;;;;;5079623;28;20404;-70
2024/03/21 02:43:21;;;;;;;27.48;14.88;;;13.80;99.90;;;;;;5081146;28;20391;-70
2024/03/21 02:45:47;;;;;;;24.77;14.55;;;13.80;99.90;;;;;;5083882;28;20119;-70
2024/03/21 02:48:13;;;;;;;27.60;13.70;;;13.80;99.90;;;;;;5082564;28;20051;-70
2024/03/21 02:50:38;;;;;;;25.52;14.57;;;13.90;99.90;;;;;;5060690;28;20104;-70
2024/03/21 02:53:04;;;;;;;29.98;14.93;;;13.90;99.90;;;;;;5080171;28;20044;-70
2024/03/21 02:55:30;;;;;;;31.38;16.00;;;13.80;99.90;;;;;;5080021;28;20031;-70
2024/03/21 02:57:56;;;;;;;28.75;16.23;;;13.80;99.90;;;;;;5066319;28;20446;-71
2024/03/21 03:00:22;;;;;;;28.05;15.48;;;13.80;99.90;;;;;;5083344;28;20039;-70
2024/03/21 03:02:48;;;;;;;27.30;16.65;;;13.70;99.90;;;;;;5084226;28;20039;-70
2024/03/21 03:05:15;;;;;;;25.85;16.08;;;13.70;99.90;;;;;;5080924;28;20032;-70
2024/03/21 03:07:40;;;;;;;27.15;16.15;;;13.70;99.90;;;;;;5067473;28;20038;-70
2024/03/21 03:10:06;;;;;;;26.30;15.57;;;13.70;99.90;;;;;;5087589;28;20020;-70
2024/03/21 03:12:32;;;;;;;32.22;16.55;;;13.70;99.90;;;;;;5080674;28;20047;-70
2024/03/21 03:14:57;;;;;;;30.17;16.70;;;13.70;99.90;;;;;;5063866;28;20563;-70
2024/03/21 03:17:23;;;;;;;33.92;16.17;;;13.70;99.90;;;;;;5079975;28;20500;-70
2024/03/21 03:19:49;;;;;;;25.70;16.48;;;13.70;99.90;;;;;;5084611;28;20032;-70
2024/03/21 03:22:14;;;;;;;27.70;16.40;;;13.70;99.90;;;;;;5087272;28;20110;-70
2024/03/21 03:24:40;;;;;;;29.98;16.08;;;13.70;99.90;;;;;;5078791;28;20036;-70
2024/03/21 03:27:05;;;;;;;33.92;17.60;;;13.70;99.90;;;;;;5084258;28;20042;-70
2024/03/21 03:29:31;;;;;;;28.40;17.30;;;13.70;99.90;;;;;;5079649;28;20400;-71
2024/03/21 03:32:01;;;;;;;33.70;18.05;;;13.70;99.90;;;;;;5067726;28;20507;-70
2024/03/21 03:37:20;;;;;;;30.15;17.17;;;13.70;99.90;;;;;;5081154;28;20580;-70
2024/03/21 03:39:45;;;;;;;29.48;17.40;;;13.70;99.90;;;;;;5078919;28;20032;-70
2024/03/21 03:42:11;;;;;;;36.42;19.23;;;13.70;99.90;;;;;;5083906;28;20097;-71
2024/03/21 03:44:36;;;;;;;35.05;18.65;;;13.70;99.90;;;;;;5080918;28;20028;-69
2024/03/21 03:47:02;;;;;;;32.30;17.92;;;13.70;99.90;;;;;;5080770;28;20047;-70
2024/03/21 03:49:28;;;;;;;35.58;19.58;;;13.70;99.90;;;;;;5080730;28;20024;-70
2024/03/21 03:51:54;;;;;;;35.97;20.52;;;13.70;99.90;;;;;;5081051;28;20040;-70
2024/03/21 03:54:20;;;;;;;39.70;22.25;;;13.70;99.90;;;;;;5075813;28;20032;-71
2024/03/21 03:56:46;;;;;;;44.83;22.45;;;13.60;99.90;;;;;;5078145;28;20051;-70
2024/03/21 03:59:11;;;;;;;41.25;25.48;;;13.60;99.90;;;;;;5064666;28;20056;-71
2024/03/21 04:01:37;;;;;;;43.17;24.42;;;13.60;99.90;;;;;;5080517;28;20608;-70
2024/03/21 04:04:03;;;;;;;38.67;24.30;;;13.60;99.90;;;;;;5080225;28;20054;-69
2024/03/21 04:06:28;;;;;;;40.42;25.02;;;13.60;99.90;;;;;;5064839;28;20496;-69
2024/03/21 04:08:54;;;;;;;43.35;25.15;;;13.60;99.90;;;;;;5084191;28;20603;-69
2024/03/21 04:11:20;;;;;;;48.05;26.42;;;13.70;99.90;;;;;;5077260;28;20048;-69
2024/03/21 04:13:46;;;;;;;45.67;27.05;;;13.60;99.90;;;;;;5082278;28;20088;-70
2024/03/21 04:16:18;;;;;;;47.40;26.83;;;13.60;99.90;;;;;;5078281;28;20544;-70
2024/03/21 04:18:44;;;;;;;49.80;28.42;;;13.60;99.90;;;;;;5064335;28;20032;-70
2024/03/21 04:21:11;;;;;;;44.85;27.70;;;13.70;99.90;;;;;;5080996;28;20032;-69
2024/03/21 04:23:37;;;;;;;49.63;29.30;;;13.60;99.90;;;;;;5076967;28;20063;-70
2024/03/21 04:26:03;;;;;;;49.45;30.17;;;13.70;99.90;;;;;;5076372;28;20036;-69
2024/03/21 04:28:28;;;;;;;50.00;29.77;;;13.70;99.90;;;;;;5080864;28;20483;-70
2024/03/21 04:30:54;;;;;;;48.75;29.08;;;13.70;99.90;;;;;;5080947;28;20451;-70
2024/03/21 04:33:19;;;;;;;49.10;29.13;;;13.70;99.90;;;;;;5075765;28;20132;-70
2024/03/21 04:35:45;;;;;;;50.63;28.73;;;13.70;99.90;;;;;;5079111;28;20041;-70
2024/03/21 04:38:11;;;;;;;47.47;28.73;;;13.70;99.90;;;;;;5082593;28;20032;-70
2024/03/21 04:40:37;;;;;;;55.72;30.80;;;13.70;99.90;;;;;;5072596;28;20024;-71
2024/03/21 04:43:03;;;;;;;48.03;28.42;;;13.70;99.90;;;;;;5075304;28;20031;-70
2024/03/21 04:45:29;;;;;;;52.95;30.63;;;13.70;99.90;;;;;;5063742;28;20113;-70
2024/03/21 04:47:55;;;;;;;50.53;30.55;;;13.60;99.90;;;;;;5063307;28;20146;-69
2024/03/21 04:50:22;;;;;;;53.40;31.23;;;13.50;99.90;;;;;;5064093;28;20159;-71
2024/03/21 04:52:48;;;;;;;55.13;31.65;;;13.50;99.90;;;;;;5081451;28;20040;-69
2024/03/21 04:55:14;;;;;;;49.92;30.63;;;13.50;99.90;;;;;;5084774;28;20028;-71
2024/03/21 04:57:40;;;;;;;49.33;29.23;;;13.50;99.90;;;;;;5074956;28;20075;-70
2024/03/21 05:00:10;;;;;;;53.30;30.50;;;13.50;99.90;;;;;;5075557;28;20603;-70
2024/03/21 05:02:39;;;;;;;51.30;29.42;;;13.50;99.90;;;;;;5079737;28;20063;-71
2024/03/21 05:05:06;;;;;;;48.55;28.95;;;13.50;99.90;;;;;;5079589;28;20453;-69
2024/03/21 05:07:32;;;;;;;50.00;28.42;;;13.50;99.90;;;;;;5079259;28;20032;-69
2024/03/21 05:09:58;;;;;;;48.92;27.15;;;13.50;99.90;;;;;;5078782;28;20036;-69
2024/03/21 05:12:24;;;;;;;51.67;28.50;;;13.50;99.90;;;;;;5058163;28;20036;-69
2024/03/21 05:14:50;;;;;;;53.47;28.52;;;13.40;99.90;;;;;;5077282;28;20060;-70
2024/03/21 05:17:17;;;;;;;48.25;26.92;;;13.40;99.90;;;;;;5075949;28;20115;-69
2024/03/21 05:19:44;;;;;;;48.55;25.80;;;13.40;99.90;;;;;;5073495;28;20046;-70
2024/03/21 05:22:10;;;;;;;47.05;24.83;;;13.40;99.90;;;;;;5083860;28;20103;-66
2024/03/21 05:24:35;;;;;;;43.08;25.35;;;13.50;99.90;;;;;;5079234;28;20181;-65
2024/03/21 05:27:02;;;;;;;47.60;25.10;;;13.40;99.90;;;;;;5076056;28;20025;-65
2024/03/21 05:29:29;;;;;;;44.63;25.17;;;13.40;99.90;;;;;;5076878;28;20053;-66
2024/03/21 05:31:55;;;;;;;46.27;25.13;;;13.40;99.90;;;;;;5075287;28;20039;-66
2024/03/21 05:34:21;;;;;;;45.58;25.17;;;13.30;99.90;;;;;;5079694;28;20053;-66
2024/03/21 05:36:46;;;;;;;51.55;26.10;;;13.30;99.90;;;;;;5072311;28;20037;-66
2024/03/21 05:39:12;;;;;;;41.03;24.38;;;13.40;99.90;;;;;;5078450;28;20387;-66
2024/03/21 05:41:37;;;;;;;41.60;24.42;;;13.40;99.90;;;;;;5074744;28;20044;-66
2024/03/21 05:44:03;;;;;;;44.95;25.05;;;13.30;99.90;;;;;;5075976;28;20047;-66
2024/03/21 05:46:29;;;;;;;49.55;27.60;;;13.30;99.90;;;;;;5079022;28;20038;-66
2024/03/21 05:48:55;;;;;;;52.20;26.42;;;13.30;99.90;;;;;;5080839;28;20043;-66
2024/03/21 05:51:21;;;;;;;45.95;25.90;;;13.30;99.90;;;;;;5077832;28;20038;-66
2024/03/21 05:53:47;;;;;;;47.92;26.23;;;13.20;99.90;;;;;;5063256;28;20024;-66
2024/03/21 05:56:15;;;;;;;49.90;25.88;;;13.20;99.90;;;;;;5065758;28;20040;-66
2024/03/21 05:58:41;;;;;;;45.63;25.17;;;13.20;99.90;;;;;;5078732;28;20051;-66
2024/03/21 06:03:33;;;;;;;47.97;23.80;;;13.20;99.90;;;;;;5081274;28;20056;-66
2024/03/21 06:06:03;;;;;;;47.08;25.00;;;13.20;99.90;;;;;;5084047;28;20038;-66
2024/03/21 06:08:28;;;;;;;47.45;23.45;;;13.20;99.90;;;;;;5081378;28;20091;-66
2024/03/21 06:10:54;;;;;;;44.10;23.17;;;13.20;99.90;;;;;;5083188;28;20632;-66
2024/03/21 06:13:20;;;;;;;38.90;22.65;;;13.20;99.90;;;;;;5068284;28;20051;-66
2024/03/21 06:15:47;;;;;;;48.80;24.20;;;13.10;99.90;;;;;;5070320;28;20599;-66
2024/03/21 06:18:17;;;;;;;43.42;22.90;;;13.20;99.90;;;;;;5081937;28;20502;-66
2024/03/21 06:20:43;;;;;;;43.70;24.98;;;13.10;99.90;;;;;;5068770;28;20040;-66
2024/03/21 06:23:09;;;;;;;55.40;25.58;;;13.10;99.90;;;;;;5086223;28;20446;-66
2024/03/21 06:25:34;;;;;;;45.25;24.15;;;13.10;99.90;;;;;;5079420;28;20036;-66
2024/03/21 06:28:01;;;;;;;47.88;24.88;;;13.10;99.90;;;;;;5082076;28;20024;-66
2024/03/21 06:30:27;;;;;;;47.40;25.00;;;13.10;99.90;;;;;;5080576;28;20039;-66
2024/03/21 06:32:53;;;;;;;47.25;26.85;;;13.10;99.90;;;;;;5080832;28;20040;-66
2024/03/21 06:35:19;;;;;;;47.63;26.98;;;13.00;99.90;;;;;;5047871;28;20036;-66
2024/03/21 06:37:45;;;;;;;50.05;26.52;;;13.10;99.90;;;;;;5063983;28;20039;-66
2024/03/21 06:40:11;;;;;;;53.28;27.48;;;13.00;99.90;;;;;;5076871;28;20024;-66
2024/03/21 06:42:37;;;;;;;49.58;27.52;;;13.00;99.90;;;;;;5078872;28;20070;-66
2024/03/21 06:45:04;;;;;;;54.38;29.90;;;13.10;99.90;;;;;;5069480;28;20051;-66
2024/03/21 06:47:30;;;;;;;53.07;28.80;;;13.00;99.90;;;;;;5078502;28;20068;-66
2024/03/21 06:49:56;;;;;;;53.10;28.25;;;12.90;99.90;;;;;;5076573;28;20359;-66
2024/03/21 06:52:23;;;;;;;53.10;28.77;;;13.00;99.90;;;;;;5081218;28;20048;-66
2024/03/21 06:54:48;;;;;;;44.63;25.30;;;12.90;99.90;;;;;;5075767;28;20132;-67
2024/03/21 06:57:14;;;;;;;47.10;26.77;;;12.90;99.90;;;;;;5083270;28;20123;-66
2024/03/21 06:59:39;;;;;;;48.42;26.67;;;13.00;99.90;;;;;;5073365;28;20032;-66
2024/03/21 07:02:06;;;;;;;45.70;26.50;;;12.90;99.90;;;;;;5063054;28;20058;-66
2024/03/21 07:04:31;;;;;;;47.60;26.77;;;13.00;99.90;;;;;;5079986;28;20028;-66
2024/03/21 07:06:57;;;;;;;52.17;26.95;;;12.90;99.90;;;;;;5074565;28;20028;-66
2024/03/21 07:09:23;;;;;;;37.83;21.77;;;12.90;99.90;;;;;;5076044;28;20086;-66
2024/03/21 07:11:49;;;;;;;41.47;23.08;;;12.90;99.90;;;;;;5078961;28;20033;-66
2024/03/21 07:14:15;;;;;;;41.28;22.05;;;12.90;99.90;;;;;;5065463;28;20044;-66
2024/03/21 07:16:41;;;;;;;36.58;20.50;;;12.90;99.90;;;;;;5063272;28;20504;-66
2024/03/21 07:19:07;;;;;;;37.65;19.88;;;12.80;99.90;;;;;;5083428;28;20082;-66
2024/03/21 07:21:33;;;;;;;30.80;16.45;;;12.80;99.90;;;;;;5084302;28;20268;-66
2024/03/21 07:23:58;;;;;;;29.52;17.10;;;12.80;99.90;;;;;;5062125;28;20584;-66
2024/03/21 07:26:24;;;;;;;27.80;15.95;;;12.80;99.90;;;;;;5065712;28;20115;-66
2024/03/21 07:28:50;;;;;;;24.70;14.18;;;12.90;99.90;;;;;;5079058;28;20173;-67
2024/03/21 07:31:16;;;;;;;19.17;11.65;;;12.80;99.90;;;;;;5077999;28;20036;-66
2024/03/21 07:33:41;;;;;;;17.23;9.70;;;12.80;99.90;;;;;;5080705;28;20362;-66
2024/03/21 07:36:07;;;;;;;17.10;9.50;;;12.70;99.90;;;;;;5083305;28;20035;-66
2024/03/21 07:38:33;;;;;;;14.13;8.60;;;12.70;99.90;;;;;;5074402;28;20040;-66
2024/03/21 07:41:00;;;;;;;13.82;7.07;;;12.70;99.90;;;;;;5076818;28;20052;-66
2024/03/21 07:43:27;;;;;;;12.45;7.82;;;12.70;99.90;;;;;;5082341;28;20035;-66
2024/03/21 07:45:53;;;;;;;10.40;6.70;;;12.60;99.90;;;;;;5062186;28;20066;-66
2024/03/21 07:48:19;;;;;;;11.77;6.40;;;12.60;99.90;;;;;;5077848;28;20039;-66
2024/03/21 07:50:45;;;;;;;10.50;6.00;;;12.50;99.90;;;;;;5075352;28;20155;-66
2024/03/21 07:53:11;;;;;;;9.73;6.20;;;12.60;99.90;;;;;;5079732;28;20061;-65
2024/03/21 07:55:37;;;;;;;10.70;5.65;;;12.50;99.90;;;;;;5065165;28;20032;-66
2024/03/21 07:58:06;;;;;;;10.20;6.55;;;12.50;99.90;;;;;;5079590;28;20044;-66
2024/03/21 08:00:32;;;;;;;9.82;6.28;;;12.50;99.90;;;;;;5079349;28;20031;-66
2024/03/21 08:02:59;;;;;;;11.95;6.78;;;12.50;99.90;;;;;;5075443;28;20032;-66
2024/03/21 08:05:24;;;;;;;10.18;6.50;;;12.50;99.90;;;;;;5061259;28;20029;-66
2024/03/21 08:07:50;;;;;;;11.07;6.90;;;12.30;99.90;;;;;;5063736;28;20031;-66
2024/03/21 08:10:16;;;;;;;13.35;7.28;;;12.30;99.90;;;;;;5080025;28;20290;-67
2024/03/21 08:12:41;;;;;;;13.60;7.43;;;12.30;99.90;;;;;;5075193;28;20432;-66
2024/03/21 08:15:08;;;;;;;11.23;7.75;;;12.20;99.90;;;;;;5084396;28;20555;-66
2024/03/21 08:17:34;;;;;;;14.20;7.97;;;12.20;99.90;;;;;;5078603;28;20029;-67
2024/03/21 08:20:00;;;;;;;12.55;7.90;;;12.20;99.90;;;;;;5076983;28;20607;-66
2024/03/21 08:22:26;;;;;;;13.48;8.30;;;12.10;99.90;;;;;;5076135;28;20036;-64
2024/03/21 08:24:52;;;;;;;14.60;8.50;;;12.10;99.90;;;;;;5081585;28;20028;-66
2024/03/21 08:27:19;;;;;;;13.48;9.02;;;11.80;99.90;;;;;;5079445;28;20125;-66
2024/03/21 08:29:46;;;;;;;17.67;10.07;;;11.50;99.90;;;;;;5080573;28;20048;-65
2024/03/21 08:32:13;;;;;;;15.52;9.75;;;11.40;99.90;;;;;;5079695;28;20078;-65
2024/03/21 08:34:39;;;;;;;18.08;10.38;;;11.30;99.90;;;;;;5078686;28;20032;-66
2024/03/21 08:37:04;;;;;;;18.02;10.45;;;11.00;99.90;;;;;;5079773;28;20028;-65
2024/03/21 08:39:30;;;;;;;19.17;11.15;;;11.10;99.90;;;;;;5080186;28;20063;-65
2024/03/21 08:41:56;;;;;;;18.88;10.55;;;11.00;99.90;;;;;;5077849;28;20044;-65
2024/03/21 08:44:21;;;;;;;17.05;11.68;;;10.90;99.90;;;;;;5076313;28;20085;-65
2024/03/21 08:46:47;;;;;;;19.20;10.75;;;10.80;99.90;;;;;;5078640;28;20030;-65
2024/03/21 08:49:13;;;;;;;18.88;10.98;;;10.90;99.90;;;;;;5072128;28;20036;-65
2024/03/21 08:51:39;;;;;;;17.33;10.20;;;10.80;99.90;;;;;;5075738;28;20127;-65
2024/03/21 08:54:06;;;;;;;17.02;10.23;;;10.80;99.90;;;;;;5067711;28;20052;-65
2024/03/21 08:56:34;;;;;;;17.60;9.57;;;10.80;99.90;;;;;;5078642;28;20029;-66
2024/03/21 08:58:59;;;;;;;18.55;9.48;;;10.70;99.90;;;;;;5079651;28;20036;-66
2024/03/21 09:01:25;;;;;;;18.55;10.20;;;10.70;99.90;;;;;;5079358;28;20040;-66
2024/03/21 09:03:51;;;;;;;16.85;10.05;;;10.70;99.90;;;;;;5077676;28;20488;-66
2024/03/21 09:06:17;;;;;;;17.52;10.32;;;10.70;99.90;;;;;;5080303;28;20028;-66
2024/03/21 09:08:42;;;;;;;17.20;9.88;;;10.60;99.90;;;;;;5078530;28;20293;-65
2024/03/21 09:11:08;;;;;;;17.67;10.35;;;10.70;99.90;;;;;;5076837;28;20042;-65
2024/03/21 09:13:34;;;;;;;16.15;10.13;;;10.60;99.90;;;;;;5083366;28;20439;-66
2024/03/21 09:15:59;;;;;;;17.23;10.40;;;10.60;99.90;;;;;;5083090;28;20032;-65
2024/03/21 09:18:25;;;;;;;20.00;10.38;;;10.50;99.90;;;;;;5082100;28;20039;-66
2024/03/21 09:20:51;;;;;;;23.52;10.52;;;10.50;99.90;;;;;;5081858;28;20037;-66
2024/03/21 09:23:17;;;;;;;20.48;10.27;;;10.40;99.90;;;;;;5068631;28;20155;-65
2024/03/21 09:25:42;;;;;;;19.33;10.13;;;10.30;99.90;;;;;;5084717;28;20028;-65
2024/03/21 09:28:08;;;;;;;17.65;9.60;;;10.40;99.90;;;;;;5083660;28;20042;-65
2024/03/21 09:30:34;;;;;;;20.63;9.38;;;10.20;99.90;;;;;;5081720;28;20024;-66
2024/03/21 09:33:00;;;;;;;23.77;9.05;;;10.20;99.90;;;;;;5082319;28;20087;-65
2024/03/21 09:35:25;;;;;;;14.68;7.25;;;10.10;99.90;;;;;;5085990;28;20032;-66
2024/03/21 09:37:51;;;;;;;12.30;6.47;;;10.10;99.90;;;;;;5067385;28;20029;-66
2024/03/21 09:40:19;;;;;;;16.42;7.10;;;10.10;99.90;;;;;;5082431;28;20082;-65
2024/03/21 09:42:45;;;;;;;17.25;7.47;;;10.20;99.90;;;;;;5080098;28;20067;-65
2024/03/21 09:45:13;;;;;;;14.85;6.20;;;10.10;99.90;;;;;;5079098;28;20056;-65
2024/03/21 09:47:40;;;;;;;17.02;6.68;;;10.00;99.90;;;;;;5062618;28;20040;-66
2024/03/21 09:50:10;;;;;;;12.32;5.72;;;10.00;99.90;;;;;;5081758;28;20682;-65
2024/03/21 09:52:35;;;;;;;11.85;4.78;;;10.00;99.90;;;;;;5082798;28;20036;-66
2024/03/21 09:55:10;;;;;;;10.02;4.28;;;10.10;99.90;;;;;;5083331;28;20030;-68
2024/03/21 09:57:36;;;;;;;8.25;4.13;;;10.10;99.90;;;;;;5064670;28;20036;-65
2024/03/21 10:00:02;;;;;;;7.70;3.78;;;10.20;99.90;;;;;;5085327;28;20038;-65
2024/03/21 10:02:28;;;;;;;10.43;3.75;;;10.10;99.90;;;;;;5080373;28;20525;-66
2024/03/21 10:04:55;;;;;;;10.73;4.05;;;10.10;99.90;;;;;;5066882;28;20143;-66
2024/03/21 10:07:23;;;;;;;8.98;3.70;;;10.10;99.90;;;;;;5084860;28;20101;-65
2024/03/21 10:09:52;;;;;;;;;;;10.00;99.90;;;;;;5068200;28;20032;-66
2024/03/21 10:12:18;;;;;;;8.50;3.65;;;10.00;99.90;;;;;;5080922;28;19919;-65
2024/03/21 10:14:44;;;;;;;10.57;4.63;;;10.00;99.90;;;;;;5083457;28;20153;-66
2024/03/21 10:17:10;;;;;;;8.48;3.60;;;10.10;99.90;;;;;;5083807;28;20032;-65
2024/03/21 10:19:35;;;;;;;13.50;3.88;;;10.10;99.90;;;;;;5064300;28;20067;-65
2024/03/21 10:22:01;;;;;;;8.40;3.60;;;10.10;99.90;;;;;;5082313;28;20028;-65
2024/03/21 10:24:27;;;;;;;8.75;3.58;;;10.20;99.90;;;;;;5066990;28;20485;-65
2024/03/21 10:26:52;;;;;;;10.88;4.03;;;10.20;99.90;;;;;;5083958;28;20551;-66
2024/03/21 10:29:19;;;;;;;17.08;4.07;;;10.30;99.90;;;;;;5081687;28;20059;-65
2024/03/21 10:31:45;;;;;;;18.15;5.07;;;10.20;99.90;;;;;;5064658;28;20688;-65
2024/03/21 10:34:12;;;;;;;9.90;3.72;;;10.30;99.90;;;;;;5082881;28;20408;-65
2024/03/21 10:36:38;;;;;;;10.77;4.00;;;10.20;99.90;;;;;;5077717;28;20047;-65
2024/03/21 10:39:08;;;;;;;12.95;3.83;;;10.20;99.90;;;;;;5078022;28;20040;-66
2024/03/21 10:41:36;;;;;;;9.48;3.42;;;10.30;99.90;;;;;;5085106;28;20105;-65
2024/03/21 10:44:05;;;;;;;12.65;4.35;;;10.20;99.90;;;;;;5067154;28;20036;-65
2024/03/21 10:46:35;;;;;;;11.20;4.00;;;10.20;99.90;;;;;;5080839;28;20126;-65
2024/03/21 10:49:00;;;;;;;18.23;4.00;;;10.30;99.90;;;;;;5081157;28;20051;-65
2024/03/21 10:51:26;;;;;;;8.30;3.72;;;10.30;99.90;;;;;;5080450;28;20024;-65
2024/03/21 10:53:58;;;;;;;9.65;3.72;;;10.30;99.90;;;;;;5080837;28;20040;-66
2024/03/21 10:56:42;;;;;;;10.50;3.50;;;10.30;99.90;;;;;;5078346;28;20024;-65
2024/03/21 10:59:15;;;;;;;10.20;3.67;;;10.30;99.90;;;;;;5085419;28;20032;-66
2024/03/21 11:01:44;;;;;;;9.48;3.83;;;10.40;99.90;;;;;;5083394;28;20028;-66
2024/03/21 11:04:14;;;;;;;15.88;3.97;;;10.50;99.90;;;;;;5088340;28;20043;-65
2024/03/21 11:06:42;;;;;;;12.77;3.55;;;10.50;99.90;;;;;;5084829;28;20044;-66
2024/03/21 11:09:09;;;;;;;14.70;4.17;;;10.60;99.90;;;;;;5082461;28;20024;-65
2024/03/21 11:11:35;;;;;;;12.35;3.65;;;10.80;99.90;;;;;;5063080;28;20032;-66
2024/03/21 11:14:09;;;;;;;12.63;4.18;;;10.60;99.90;;;;;;5082913;28;20570;-65
2024/03/21 11:16:37;;;;;;;12.40;4.38;;;10.70;99.90;;;;;;5081776;28;20077;-66
2024/03/21 11:19:04;;;;;;;13.68;4.40;;;10.60;99.90;;;;;;5085193;28;20024;-65
2024/03/21 11:21:29;;;;;;;9.20;3.72;;;10.70;99.90;;;;;;5078609;28;20039;-66
2024/03/21 11:23:55;;;;;;;11.77;3.80;;;10.70;99.90;;;;;;5080055;28;20032;-65
2024/03/21 11:26:21;;;;;;;15.98;3.38;;;10.60;99.90;;;;;;5080754;28;20062;-66
2024/03/21 11:28:49;;;;;;;12.38;3.50;;;10.70;99.90;;;;;;5065232;28;20396;-66
2024/03/21 11:31:18;;;;;;;;;;;10.70;99.90;;;;;;5083552;28;20092;-66
2024/03/21 11:33:44;;;;;;;20.85;3.88;;;10.70;99.90;;;;;;5065562;28;19912;-66
2024/03/21 11:36:10;;;;;;;7.85;3.85;;;10.70;99.90;;;;;;5079119;28;20176;-65
2024/03/21 11:38:36;;;;;;;13.38;4.05;;;10.70;99.90;;;;;;5076850;28;20055;-65
2024/03/21 11:41:03;;;;;;;9.63;4.28;;;10.70;99.90;;;;;;5080014;28;20027;-65
2024/03/21 11:43:29;;;;;;;15.02;4.18;;;10.70;99.90;;;;;;5079169;28;20058;-65
2024/03/21 11:45:58;;;;;;;21.65;4.68;;;10.80;99.90;;;;;;5081373;28;20074;-66
2024/03/21 11:48:26;;;;;;;10.57;4.15;;;10.80;99.90;;;;;;5082474;28;20031;-66
2024/03/21 11:50:53;;;;;;;14.45;4.05;;;10.80;99.90;;;;;;5080949;28;20031;-66
2024/03/21 11:53:19;;;;;;;15.18;4.70;;;10.80;99.90;;;;;;5078753;28;20031;-65
2024/03/21 11:55:44;;;;;;;10.25;4.47;;;10.80;99.90;;;;;;5063662;28;20028;-67
2024/03/21 11:58:10;;;;;;;12.32;4.50;;;10.80;99.90;;;;;;5079164;28;20042;-65
2024/03/21 12:00:36;;;;;;;9.77;4.40;;;10.80;99.90;;;;;;5079477;28;20057;-66
2024/03/21 12:03:02;;;;;;;12.07;4.80;;;10.80;99.90;;;;;;5083441;28;20024;-65
2024/03/21 12:05:27;;;;;;;18.98;4.82;;;10.90;99.90;;;;;;5081811;28;20384;-66
2024/03/21 12:07:53;;;;;;;14.27;4.82;;;11.00;99.90;;;;;;5077646;28;20107;-66
2024/03/21 12:10:18;;;;;;;15.40;5.13;;;11.00;99.90;;;;;;5084091;28;20506;-66
2024/03/21 12:12:44;;;;;;;11.80;5.07;;;11.10;99.90;;;;;;5085650;28;20028;-65
2024/03/21 12:15:13;;;;;;;14.02;5.28;;;11.10;99.90;;;;;;5083270;28;20039;-65
2024/03/21 12:17:39;;;;;;;13.52;5.70;;;11.20;99.90;;;;;;5084487;28;20551;-65
2024/03/21 12:20:05;;;;;;;8.98;4.43;;;11.30;99.90;;;;;;5078337;28;20059;-65
2024/03/21 12:22:31;;;;;;;13.73;5.78;;;11.30;99.90;;;;;;5060142;28;20031;-65
2024/03/21 12:24:57;;;;;;;11.00;4.85;;;11.40;99.90;;;;;;5081843;28;20107;-65
2024/03/21 12:27:23;;;;;;;14.63;5.65;;;11.50;99.90;;;;;;5082386;28;20048;-66
2024/03/21 12:29:49;;;;;;;11.90;4.70;;;11.50;99.90;;;;;;5082040;28;20447;-66
2024/03/21 12:32:15;;;;;;;10.75;4.63;;;11.50;99.90;;;;;;5079817;28;20032;-65